• Join FlightAware (Why Join?)
  • Login
  • US Flag 
12:43PM EDT


 

Airport Tracker/Info


-or-


 

Live Flight TrackerFlight Track Log ✈ SWA1035 ✈ 06-May-2013 ✈ KTPA - KMCI

Flight Track Log - Related Links

Times and Time Zones

All times are in EDT time to prevent confusion due to time zone crossing. See the SWA1035 flight status page for this flight to view local times or setup timezone preferences in your user account.

Time Position Orientation Groundspeed Altitude Reporting Facility
EDT Latitude Longitude Course Direction KTS MPH feet Rate Location/Type
10:55AM 28.0167 -82.5333 North 154 177 1,400  Level Tampa TRACON
10:57AM 28.1333 -82.5167 North 230 265 5,900 1,860 Climbing Tampa TRACON
10:58AM 28.2000 -82.5333 348° North 259 298 7,000 1,140 Climbing Tampa TRACON
10:59AM 28.2706 -82.5886 325° Northwest 286 329 8,500 1,680 Climbing Jacksonville Center
11:00AM 28.3353 -82.6378 326° Northwest 281 323 10,700 2,400 Climbing Jacksonville Center
11:02AM 28.4983 -82.7556 328° Northwest 336 387 15,800 2,640 Climbing Jacksonville Center
11:03AM 28.5819 -82.8192 326° Northwest 352 405 18,700 2,700 Climbing Jacksonville Center
11:04AM 28.6717 -82.8783 330° Northwest 366 421 21,200 2,160 Climbing Jacksonville Center
11:05AM 28.7531 -82.9353 328° Northwest 371 427 23,100 1,920 Climbing Jacksonville Center
11:06AM 28.8489 -83.0017 329° Northwest 384 442 25,100 1,920 Climbing Jacksonville Center
11:07AM 28.9450 -83.0706 328° Northwest 399 459 27,000 1,860 Climbing Jacksonville Center
11:08AM 29.0472 -83.1394 329° Northwest 413 475 28,900 1,080 Climbing Jacksonville Center
11:10AM 29.1968 -83.2393 327° Northwest  Level FlightAware Approximate
11:14AM 29.6386 -83.5544 329° Northwest 408 470 34,900  Level Jacksonville Center
11:16AM 29.7724 -83.6865 329° Northwest  Level Estimated
11:16AM 29.8361 -83.6922 329° Northwest 408 470 36,000  Level Jacksonville Center
11:17AM 29.8646 -83.7179 329° Northwest  Level FlightAware Approximate
11:17AM 29.9336 -83.7625 328° Northwest 408 470 36,000  Level Jacksonville Center
11:18AM 29.9610 -83.7849 329° Northwest  Level FlightAware Approximate
11:18AM 30.0356 -83.8331 329° Northwest 408 470 36,000  Level Jacksonville Center
11:19AM 30.0573 -83.8520 329° Northwest  Level FlightAware Approximate
11:19AM 30.1308 -83.9061 326° Northwest 408 470 36,000  Level Jacksonville Center
11:20AM 30.1536 -83.9192 329° Northwest  Level FlightAware Approximate
11:20AM 30.2347 -83.9769 330° Northwest 413 475 36,300  Level Jacksonville Center
11:21AM 30.3303 -84.0478 327° Northwest 413 475 37,700 840 Climbing Jacksonville Center
11:22AM 30.4108 -84.1356 317° Northwest 405 466 38,000 120 Climbing Jacksonville Center
11:23AM 30.4703 -84.2375 304° West 386 444 38,000  Level Jacksonville Center
11:25AM 30.6081 -84.4350 309° West 391 450 38,000  Level Jacksonville Center
11:27AM 30.7280 -84.5712 316° Northwest  Level FlightAware Approximate
11:28AM 30.8444 -84.7072 316° Northwest 397 457 38,000  Level Jacksonville Center
11:29AM 30.9244 -84.7983 316° Northwest 397 457 38,000  Level Jacksonville Center
11:30AM 31.0067 -84.8922 316° Northwest 402 463 38,000  Level Jacksonville Center
11:31AM 31.0844 -84.9836 315° West 396 456 38,000  Level Jacksonville Center
11:33AM 31.2042 -85.1208 316° Northwest  Level FlightAware Approximate
11:34AM 31.2621 -85.1841 316° Northwest  Level FlightAware Approximate
11:34AM 31.3356 -85.2764 314° West 399 459 38,000  Level Atlanta Center
11:35AM 31.4119 -85.3650 315° West 399 459 38,000  Level Atlanta Center
11:36AM 31.4861 -85.4464 317° Northwest 399 459 38,000  Level Atlanta Center
11:37AM 31.5642 -85.5403 314° West 404 465 38,000  Level Atlanta Center
11:38AM 31.6425 -85.6342 314° West 404 465 38,000  Level Atlanta Center
11:39AM 31.7225 -85.7283 315° West 404 465 38,000  Level Atlanta Center
11:40AM 31.7372 -85.7380 314° West  Level FlightAware Approximate
11:40AM 31.8128 -85.8353 315° West 409 471 38,000  Level Atlanta Center
11:42AM 31.9214 -85.9632 315° West  Level FlightAware Approximate
11:42AM 31.9647 -86.0144 315° West 409 471 38,000  Level Atlanta Center
11:43AM 32.0425 -86.1069 315° West 404 465 38,000  Level Atlanta Center
11:44AM 32.1242 -86.2069 314° West 409 471 38,000  Level Atlanta Center
11:46AM 32.2328 -86.3381 312° West  Level FlightAware Approximate
11:48AM 32.4503 -86.6086 313° West 409 471 38,000  Level Atlanta Center
11:49AM 32.5297 -86.7044 315° West 409 471 38,000  Level Atlanta Center
11:50AM 32.6069 -86.8031 313° West 409 471 38,000 300 Level Atlanta Center
11:52AM 32.7130 -86.9396 313° West  Level FlightAware Approximate
11:52AM 32.7653 -87.0006 313° West 409 471 38,900  Level Atlanta Center
11:53AM 32.7466 -86.9856 313° West  Level FlightAware Approximate
11:53AM 32.8442 -87.1022 313° West 414 476 39,000  Level Atlanta Center
11:54AM 32.8200 -87.0785 313° West  Level FlightAware Approximate
11:54AM 32.9231 -87.2014 313° West 414 476 39,000  Level Atlanta Center
11:55AM 33.0019 -87.2983 314° West 414 476 39,000  Level Atlanta Center
12:00PM 33.3567 -87.7706 312° West 415 478 39,000  Level Memphis Center
12:01PM 33.4339 -87.8681 314° West 405 466 39,000  Level Memphis Center
12:02PM 33.5111 -87.9681 313° West 405 466 39,000  Level Memphis Center
12:04PM 33.6325 -88.1272 313° West  Level FlightAware Approximate
12:07PM 33.9017 -88.4803 312° West 410 472 39,000  Level Memphis Center
12:09PM 34.0372 -88.6227 319° Northwest  Level Estimated
12:11PM 34.1403 -88.8003 312° West  Level FlightAware Approximate
12:11PM 34.1992 -88.8756 319° Northwest 410 472 39,000  Level Memphis Center
12:12PM 34.2125 -88.8972 312° West  Level FlightAware Approximate
12:12PM 34.2778 -88.9797 312° West 416 479 38,200  Level Memphis Center
12:13PM 34.3625 -89.0942 312° West 416 479 38,000 -120 Descending Memphis Center
12:14PM 34.4386 -89.1961 312° West 416 479 38,000  Level Memphis Center
12:15PM 34.5189 -89.3033 312° West 411 473 38,000  Level Memphis Center
12:16PM 34.6003 -89.2210 319° Northwest  Level Estimated
12:17PM 34.6354 -89.4694 312° West  Level FlightAware Approximate
12:18PM 34.7442 -89.6117 312° West 411 473 38,000  Level Memphis Center
12:19PM 34.8219 -89.7172 312° West 416 479 38,000  Level Memphis Center
12:20PM 34.8956 -89.8228 310° West 416 479 38,000  Level Memphis Center
12:21PM 34.9794 -89.9339 313° West 425 489 38,000  Level Memphis Center
12:22PM 35.0528 -90.0350 312° West 425 489 38,000  Level Memphis Center
12:23PM 35.1303 -90.1386 312° West 415 478 38,000  Level Memphis Center
12:24PM 35.1385 -90.1547 312° West  Level FlightAware Approximate
12:24PM 35.2033 -90.2403 311° West 410 472 38,000  Level Memphis Center
12:25PM 35.2786 -90.3444 312° West 410 472 38,000  Level Memphis Center
12:26PM 35.3558 -90.4461 313° West 410 472 38,000  Level Memphis Center
12:27PM 35.4286 -90.5508 310° West 410 472 38,000  Level Memphis Center
12:28PM 35.5014 -90.6528 311° West 410 472 38,000  Level Memphis Center
12:30PM 35.6353 -90.8406 311° West 404 465 38,000  Level Kansas City Center
12:31PM 35.7111 -90.9503 310° West 410 472 38,000  Level Memphis Center
12:33PM 35.8622 -91.1536 313° West 400 460 38,000  Level Memphis Center
12:34PM 35.9450 -91.2467 318° Northwest 400 460 38,000  Level Memphis Center
12:36PM 36.1103 -91.4308 318° Northwest 405 466 38,000  Level Memphis Center
12:37PM 36.1928 -91.5244 318° Northwest 394 453 38,000  Level Memphis Center
12:38PM 36.2753 -91.6158 318° Northwest 399 459 38,000  Level Memphis Center
12:39PM 36.3578 -91.7100 317° Northwest 399 459 38,000  Level Memphis Center
12:40PM 36.4422 -91.7989 320° Northwest 399 459 38,000  Level Memphis Center
12:42PM 36.5546 -91.9216 319° Northwest  Level FlightAware Approximate
12:43PM 36.7189 -92.1128 318° Northwest 400 460 38,000  Level Kansas City Center
12:44PM 36.8008 -92.2097 317° Northwest 402 463 38,000  Level Kansas City Center
12:46PM 36.9016 -92.3226 318° Northwest  Level FlightAware Approximate
12:46PM 36.9683 -92.4028 318° Northwest 408 470 38,000  Level Kansas City Center
12:47PM 37.0681 -92.5181 317° Northwest 405 466 38,000  Level Kansas City Center
12:48PM 37.1514 -92.6156 317° Northwest 407 468 38,000 -300 Level Kansas City Center
12:49PM 37.1058 -92.5523 318° Northwest  Level FlightAware Approximate
12:51PM 37.3245 -92.8017 319° Northwest  Level FlightAware Approximate
12:51PM 37.4031 -92.9083 319° Northwest 410 472 37,000  Level Kansas City Center
12:53PM 37.4833 -93.0037 316° Northwest  Level FlightAware Approximate
12:57PM 37.8397 -93.4256 335° Northwest 411 473 36,100  Level Kansas City Center
12:58PM 37.9225 -93.5247 317° Northwest 409 471 32,700 -2,760 Descending Kansas City Center
01:00PM 38.0268 -93.6527 317° Northwest  Level FlightAware Approximate
01:00PM 38.0639 -93.6966 316° Northwest  Level FlightAware Approximate
01:01PM 38.1077 -93.7411 322° Northwest  Level FlightAware Approximate
01:02PM 38.2030 -93.8017 335° Northwest  Level FlightAware Approximate
01:02PM 38.3003 -93.8631 314° West 405 466 22,000  Level Kansas City Center
01:03PM 38.4206 -93.9328 336° Northwest 396 456 18,400 -3,000 Descending Kansas City Center
01:04PM 38.5206 -93.9869 337° Northwest 393 452 15,900 -2,280 Descending Kansas City Center
01:05PM 38.6089 -94.0375 336° Northwest 366 421 13,700 -1,500 Descending Kansas City Center
01:07PM 38.7185 -94.1246 314° West  Level FlightAware Approximate
01:08PM 38.7320 -94.1427 314° West  Level FlightAware Approximate
01:08PM 38.8267 -94.2669 314° West 307 353 9,800  Level Kansas City Center
01:10PM 38.9175 -94.4425 304° West 279 321 7,700 -1,020 Descending Kansas City Center
01:11PM 38.9578 -94.5236 303° West 281 323 6,700 -840 Descending Kansas City Center
01:12PM 38.9981 -94.6019 304° West 275 316 6,000 -720 Descending Kansas City Center
01:14PM 39.1000 -94.7333 315° West 225 259 4,500 -840 Descending Kansas City TRACON
01:15PM 39.1667 -94.7500 349° North 195 224 3,500 -960 Descending Kansas City TRACON
01:16PM 39.2050 -94.7319 20° North 164 189 2,600 -840 Descending Kansas City Center
01:17PM 39.2456 -94.7200 13° North 137 158 1,800 -780 Descending Kansas City Center
01:18PM 39.2792 -94.7106 12° North 130 150 1,100 -720 Descending Kansas City Center